Wetterdaten: Woche 24.10.22 - 30.10.22 (KW43)
Datum Zeit Temp. Aussen Temp. o. S. Temp +5cm Feuchte Auss Luftdruck Regen Sonnenschein Regendauer Solar Windben Empfang
24.10.2022 00:00 14,5 C 13,4 C 10,0 C 96 % 1006,9 hPa 0,0 l/m 0,00 h 0,00 h 0 W/m 8,4 km/h (2 Bft) 77,64 %
24.10.2022 01:00 14,2 C 13,4 C 10,0 C 96 % 1006,7 hPa 0,0 l/m 0,00 h 0,00 h 0 W/m 10,2 km/h (2 Bft) 85,02 %
24.10.2022 02:00 14,4 C 13,8 C 10,0 C 95 % 1006,3 hPa 0,0 l/m 0,00 h 0,00 h 0 W/m 10,1 km/h (2 Bft) 95,31 %
24.10.2022 03:00 14,4 C 13,7 C 9,8 C 93 % 1006,0 hPa 0,0 l/m 0,00 h 0,00 h 0 W/m 8,2 km/h (2 Bft) 98,01 %
24.10.2022 04:00 14,3 C 13,2 C 10,0 C 93 % 1005,5 hPa 0,0 l/m 0,00 h 0,00 h 0 W/m 7,2 km/h (2 Bft) 95,87 %
24.10.2022 05:00 13,9 C 13,1 C 10,0 C 91 % 1005,5 hPa 0,0 l/m 0,00 h 0,00 h 0 W/m 3,3 km/h (1 Bft) 97,79 %
24.10.2022 06:00 13,5 C 12,6 C 9,4 C 91 % 1005,7 hPa 0,0 l/m 0,00 h 0,00 h 0 W/m 3,8 km/h (1 Bft) 94,74 %
24.10.2022 07:00 13,4 C 12,9 C 9,7 C 91 % 1006,0 hPa 0,0 l/m 0,00 h 0,00 h 0 W/m 4,2 km/h (1 Bft) 96,58 %
24.10.2022 08:00 13,7 C 13,2 C 10,0 C 89 % 1006,4 hPa 0,0 l/m 0,00 h 0,00 h 9 W/m 6,0 km/h (2 Bft) 97,23 %
24.10.2022 09:00 15,3 C 14,8 C 11,2 C 84 % 1006,8 hPa 0,0 l/m 0,00 h 0,00 h 33 W/m 21,9 km/h (4 Bft) 99,15 %
24.10.2022 10:00 16,4 C 15,8 C 12,1 C 80 % 1007,1 hPa 0,0 l/m 0,00 h 0,00 h 59 W/m 29,8 km/h (5 Bft) 95,41 %
24.10.2022 11:00 17,2 C 17,3 C 13,0 C 78 % 1007,5 hPa 0,0 l/m 0,10 h 0,00 h 139 W/m 27,0 km/h (4 Bft) 98,86 %
24.10.2022 12:00 17,6 C 17,1 C 13,2 C 77 % 1008,0 hPa 0,0 l/m 0,00 h 0,00 h 127 W/m 29,5 km/h (5 Bft) 97,28 %
24.10.2022 13:00 17,7 C 17,2 C 13,3 C 76 % 1008,4 hPa 0,0 l/m 0,00 h 0,00 h 112 W/m 27,8 km/h (4 Bft) 97,72 %
24.10.2022 14:00 17,7 C 17,2 C 13,0 C 77 % 1008,6 hPa 0,0 l/m 0,10 h 0,03 h 108 W/m 22,8 km/h (4 Bft) 95,06 %
24.10.2022 15:00 18,7 C 18,6 C 14,0 C 74 % 1008,4 hPa 0,0 l/m 0,70 h 0,03 h 292 W/m 28,2 km/h (4 Bft) 98,22 %
24.10.2022 16:00 18,5 C 18,0 C 13,8 C 75 % 1008,7 hPa 0,0 l/m 0,67 h 0,00 h 137 W/m 25,3 km/h (4 Bft) 96,29 %
24.10.2022 17:00 16,9 C 15,6 C 11,1 C 84 % 1009,2 hPa 0,6 l/m 0,13 h 0,37 h 31 W/m 11,8 km/h (2 Bft) 97,58 %
24.10.2022 18:00 15,3 C 14,1 C 10,0 C 91 % 1009,7 hPa 1,0 l/m 0,00 h 0,13 h 8 W/m 11,1 km/h (2 Bft) 96,34 %
24.10.2022 19:00 14,1 C 12,8 C 9,1 C 93 % 1010,1 hPa 0,4 l/m 0,00 h 0,67 h 0 W/m 12,7 km/h (3 Bft) 97,67 %
24.10.2022 20:00 13,6 C 12,5 C 8,9 C 95 % 1010,4 hPa 0,0 l/m 0,00 h 0,00 h 0 W/m 7,2 km/h (2 Bft) 97,97 %
24.10.2022 21:00 13,8 C 13,1 C 9,2 C 95 % 1010,5 hPa 0,6 l/m 0,00 h 0,17 h 0 W/m 10,0 km/h (2 Bft) 96,14 %
24.10.2022 22:00 13,6 C 12,5 C 8,9 C 94 % 1011,1 hPa 1,0 l/m 0,00 h 0,80 h 0 W/m 13,0 km/h (3 Bft) 97,84 %
24.10.2022 23:00 13,1 C 12,2 C 8,9 C 95 % 1011,7 hPa 0,0 l/m 0,00 h 0,00 h 0 W/m 9,2 km/h (2 Bft) 98,36 %
25.10.2022 00:00 13,2 C 12,5 C 8,9 C 96 % 1012,0 hPa 0,0 l/m 0,00 h 0,00 h 0 W/m 16,0 km/h (3 Bft) 95,51 %
25.10.2022 01:00 13,4 C 12,8 C 8,9 C 96 % 1012,6 hPa 0,0 l/m 0,00 h 0,00 h 0 W/m 13,7 km/h (3 Bft) 96,56 %
25.10.2022 02:00 13,6 C 13,0 C 9,1 C 95 % 1013,0 hPa 0,0 l/m 0,00 h 0,00 h 0 W/m 13,9 km/h (3 Bft) 98,46 %
25.10.2022 03:00 13,9 C 13,0 C 9,2 C 94 % 1013,3 hPa 0,0 l/m 0,00 h 0,00 h 0 W/m 11,2 km/h (2 Bft) 94,34 %
25.10.2022 04:00 13,7 C 12,9 C 9,2 C 94 % 1013,5 hPa 0,0 l/m 0,00 h 0,00 h 0 W/m 13,4 km/h (3 Bft) 99,57 %
25.10.2022 05:00 13,9 C 13,1 C 9,9 C 93 % 1013,8 hPa 0,0 l/m 0,00 h 0,00 h 0 W/m 16,0 km/h (3 Bft) 96,52 %
25.10.2022 06:00 13,7 C 12,8 C 10,0 C 94 % 1014,3 hPa 0,0 l/m 0,00 h 0,10 h 0 W/m 12,2 km/h (2 Bft) 95,56 %
25.10.2022 07:00 13,5 C 12,6 C 9,7 C 94 % 1014,6 hPa 0,0 l/m 0,00 h 0,00 h 0 W/m 7,2 km/h (2 Bft) 98,17 %
25.10.2022 08:00 12,9 C 12,0 C 9,1 C 95 % 1015,3 hPa 0,0 l/m 0,00 h 0,00 h 11 W/m 6,9 km/h (2 Bft) 97,99 %
25.10.2022 09:00 13,0 C 12,5 C 9,5 C 95 % 1016,0 hPa 0,0 l/m 0,00 h 0,00 h 35 W/m 13,6 km/h (3 Bft) 96,18 %
25.10.2022 10:00 14,1 C 14,2 C 10,6 C 93 % 1016,3 hPa 0,0 l/m 0,03 h 0,00 h 80 W/m 17,0 km/h (3 Bft) 97,80 %
25.10.2022 11:00 15,5 C 18,8 C 12,0 C 87 % 1016,7 hPa 0,0 l/m 0,57 h 0,00 h 191 W/m 19,4 km/h (3 Bft) 92,46 %
25.10.2022 12:00 15,7 C 15,5 C 11,8 C 85 % 1017,1 hPa 0,0 l/m 0,00 h 0,00 h 93 W/m 15,4 km/h (3 Bft) 98,46 %
25.10.2022 13:00 16,0 C 15,9 C 12,0 C 84 % 1017,2 hPa 0,0 l/m 0,00 h 0,00 h 136 W/m 14,2 km/h (3 Bft) 97,52 %
25.10.2022 14:00 16,7 C 17,1 C 12,6 C 81 % 1017,2 hPa 0,0 l/m 0,57 h 0,00 h 290 W/m 16,0 km/h (3 Bft) 93,88 %
25.10.2022 15:00 16,9 C 16,7 C 12,7 C 78 % 1017,1 hPa 0,0 l/m 0,23 h 0,00 h 150 W/m 17,8 km/h (3 Bft) 97,44 %
25.10.2022 16:00 16,7 C 16,2 C 12,2 C 78 % 1017,1 hPa 0,0 l/m 0,00 h 0,00 h 95 W/m 16,4 km/h (3 Bft) 99,08 %
25.10.2022 17:00 16,2 C 15,4 C 11,6 C 80 % 1016,8 hPa 0,0 l/m 0,00 h 0,00 h 30 W/m 11,7 km/h (2 Bft) 94,87 %
25.10.2022 18:00 15,5 C 13,7 C 10,0 C 82 % 1016,6 hPa 0,0 l/m 0,00 h 0,00 h 7 W/m 2,1 km/h (1 Bft) 99,41 %
25.10.2022 19:00 14,2 C 12,3 C 8,8 C 86 % 1016,5 hPa 0,0 l/m 0,00 h 0,00 h 0 W/m 0,4 km/h (0 Bft) 96,09 %
25.10.2022 20:00 13,3 C 11,8 C 8,6 C 89 % 1016,3 hPa 0,0 l/m 0,00 h 0,00 h 0 W/m 0,9 km/h (0 Bft) 96,37 %
25.10.2022 21:00 12,4 C 10,9 C 7,3 C 92 % 1016,0 hPa 0,0 l/m 0,00 h 0,00 h 0 W/m 0,2 km/h (0 Bft) 96,80 %
25.10.2022 22:00 11,8 C 10,8 C 7,6 C 93 % 1015,8 hPa 0,0 l/m 0,00 h 0,00 h 0 W/m 1,3 km/h (1 Bft) 97,51 %
25.10.2022 23:00 11,3 C 10,1 C 7,2 C 94 % 1015,6 hPa 0,0 l/m 0,00 h 0,00 h 0 W/m 2,1 km/h (1 Bft) 96,51 %
26.10.2022 00:00 11,4 C 10,6 C 7,8 C 95 % 1015,4 hPa 0,0 l/m 0,00 h 0,00 h 0 W/m 4,1 km/h (1 Bft) 96,68 %
26.10.2022 01:00 11,5 C 10,8 C 7,8 C 95 % 1015,1 hPa 0,0 l/m 0,00 h 0,00 h 0 W/m 4,6 km/h (1 Bft) 98,36 %
26.10.2022 02:00 11,8 C 11,2 C 8,3 C 95 % 1014,8 hPa 0,0 l/m 0,00 h 0,00 h 0 W/m 5,9 km/h (2 Bft) 96,58 %
26.10.2022 03:00 12,2 C 11,7 C 8,6 C 94 % 1014,5 hPa 0,0 l/m 0,00 h 0,00 h 0 W/m 7,4 km/h (2 Bft) 96,73 %
26.10.2022 04:00 12,4 C 11,7 C 8,9 C 93 % 1013,9 hPa 0,0 l/m 0,00 h 0,00 h 0 W/m 3,9 km/h (1 Bft) 98,34 %
26.10.2022 05:00 12,7 C 12,3 C 9,1 C 93 % 1013,6 hPa 0,0 l/m 0,00 h 0,00 h 0 W/m 5,6 km/h (1 Bft) 97,79 %
26.10.2022 06:00 13,1 C 12,5 C 9,4 C 92 % 1013,6 hPa 0,0 l/m 0,00 h 0,00 h 0 W/m 7,0 km/h (2 Bft) 96,33 %
26.10.2022 07:00 13,3 C 12,8 C 9,4 C 92 % 1013,5 hPa 0,0 l/m 0,00 h 0,00 h 0 W/m 7,9 km/h (2 Bft) 99,29 %
26.10.2022 08:00 13,6 C 12,8 C 9,6 C 92 % 1013,7 hPa 0,0 l/m 0,00 h 0,00 h 9 W/m 9,2 km/h (2 Bft) 96,21 %
26.10.2022 09:00 13,8 C 13,3 C 10,0 C 92 % 1014,0 hPa 0,0 l/m 0,00 h 0,00 h 44 W/m 6,5 km/h (2 Bft) 97,06 %
26.10.2022 10:00 14,9 C 15,1 C 11,2 C 91 % 1014,5 hPa 0,0 l/m 0,00 h 0,00 h 63 W/m 11,7 km/h (2 Bft) 98,50 %
26.10.2022 11:00 17,4 C 23,0 C 13,0 C 84 % 1015,2 hPa 0,0 l/m 0,57 h 0,00 h 224 W/m 11,8 km/h (2 Bft) 96,57 %
26.10.2022 12:00 18,8 C 18,7 C 14,1 C 80 % 1015,9 hPa 0,0 l/m 0,00 h 0,00 h 69 W/m 18,6 km/h (3 Bft) 96,74 %
26.10.2022 13:00 19,5 C 19,1 C 14,4 C 80 % 1016,4 hPa 0,0 l/m 0,10 h 0,00 h 119 W/m 16,3 km/h (3 Bft) 97,15 %
26.10.2022 14:00 20,0 C 20,4 C 15,0 C 79 % 1016,8 hPa 0,0 l/m 0,87 h 0,00 h 277 W/m 17,3 km/h (3 Bft) 98,22 %
26.10.2022 15:00 20,5 C 20,7 C 15,4 C 76 % 1017,2 hPa 0,0 l/m 1,00 h 0,00 h 293 W/m 15,5 km/h (3 Bft) 97,52 %
26.10.2022 16:00 20,6 C 20,0 C 15,3 C 75 % 1017,5 hPa 0,0 l/m 0,63 h 0,00 h 148 W/m 15,3 km/h (3 Bft) 95,86 %
26.10.2022 17:00 19,9 C 18,9 C 14,4 C 76 % 1018,1 hPa 0,0 l/m 0,00 h 0,00 h 44 W/m 10,4 km/h (2 Bft) 99,64 %
26.10.2022 18:00 18,5 C 16,9 C 12,8 C 79 % 1019,0 hPa 0,0 l/m 0,00 h 0,00 h 8 W/m 0,6 km/h (0 Bft) 93,45 %
26.10.2022 19:00 17,6 C 16,2 C 11,3 C 82 % 1020,0 hPa 0,0 l/m 0,00 h 0,00 h 0 W/m 0,0 km/h (0 Bft) 98,58 %
26.10.2022 20:00 16,9 C 15,2 C 10,7 C 85 % 1020,8 hPa 0,0 l/m 0,00 h 0,00 h 0 W/m 0,0 km/h (0 Bft) 97,78 %
26.10.2022 21:00 16,3 C 15,2 C 11,1 C 87 % 1021,4 hPa 0,0 l/m 0,00 h 0,00 h 0 W/m 0,0 km/h (0 Bft) 96,92 %
26.10.2022 22:00 15,8 C 14,6 C 11,0 C 88 % 1021,7 hPa 0,0 l/m 0,00 h 0,00 h 0 W/m 0,0 km/h (0 Bft) 97,73 %
26.10.2022 23:00 15,1 C 13,9 C 10,5 C 89 % 1022,3 hPa 0,0 l/m 0,00 h 0,00 h 0 W/m 0,0 km/h (0 Bft) 95,14 %
27.10.2022 00:00 14,2 C 13,0 C 9,6 C 90 % 1022,3 hPa 0,0 l/m 0,00 h 0,00 h 0 W/m 0,0 km/h (0 Bft) 97,50 %
27.10.2022 01:00 13,4 C 12,3 C 9,2 C 92 % 1022,5 hPa 0,0 l/m 0,00 h 0,00 h 0 W/m 0,0 km/h (0 Bft) 94,78 %
27.10.2022 02:00 13,1 C 12,2 C 8,9 C 94 % 1022,6 hPa 0,0 l/m 0,00 h 0,00 h 0 W/m 0,6 km/h (0 Bft) 98,17 %
27.10.2022 03:00 13,0 C 12,2 C 9,1 C 95 % 1022,9 hPa 0,0 l/m 0,00 h 0,00 h 0 W/m 4,7 km/h (1 Bft) 97,36 %
27.10.2022 04:00 12,9 C 12,2 C 8,9 C 96 % 1022,9 hPa 0,0 l/m 0,00 h 0,00 h 0 W/m 4,3 km/h (1 Bft) 95,12 %
27.10.2022 05:00 12,8 C 12,2 C 9,0 C 96 % 1022,6 hPa 0,0 l/m 0,00 h 0,00 h 0 W/m 3,2 km/h (1 Bft) 98,01 %
27.10.2022 06:00 12,8 C 12,2 C 9,0 C 96 % 1022,6 hPa 0,0 l/m 0,00 h 0,00 h 0 W/m 6,4 km/h (2 Bft) 98,23 %
27.10.2022 07:00 12,7 C 11,8 C 8,9 C 96 % 1022,6 hPa 0,0 l/m 0,00 h 0,00 h 0 W/m 6,6 km/h (2 Bft) 95,52 %
27.10.2022 08:00 12,4 C 11,8 C 8,9 C 96 % 1022,8 hPa 0,0 l/m 0,00 h 0,00 h 13 W/m 5,7 km/h (1 Bft) 98,71 %
27.10.2022 09:00 13,2 C 13,2 C 9,9 C 96 % 1022,6 hPa 0,0 l/m 0,00 h 0,00 h 44 W/m 11,5 km/h (2 Bft) 96,99 %
27.10.2022 10:00 15,0 C 15,4 C 11,4 C 92 % 1022,6 hPa 0,0 l/m 0,03 h 0,00 h 90 W/m 11,1 km/h (2 Bft) 96,77 %
27.10.2022 11:00 17,2 C 21,1 C 12,9 C 85 % 1022,2 hPa 0,0 l/m 0,67 h 0,00 h 226 W/m 14,9 km/h (3 Bft) 98,17 %
27.10.2022 12:00 18,7 C 18,6 C 14,1 C 80 % 1021,6 hPa 0,0 l/m 0,00 h 0,00 h 117 W/m 17,2 km/h (3 Bft) 91,42 %
27.10.2022 13:00 19,9 C 19,8 C 15,1 C 78 % 1021,0 hPa 0,0 l/m 0,13 h 0,00 h 166 W/m 18,1 km/h (3 Bft) 94,53 %
27.10.2022 14:00 20,9 C 21,3 C 15,9 C 76 % 1020,5 hPa 0,0 l/m 0,87 h 0,00 h 247 W/m 11,7 km/h (2 Bft) 98,50 %
27.10.2022 15:00 21,2 C 21,1 C 16,1 C 76 % 1019,8 hPa 0,0 l/m 0,87 h 0,00 h 228 W/m 11,8 km/h (2 Bft) 96,37 %
27.10.2022 16:00 20,9 C 20,2 C 15,8 C 77 % 1019,4 hPa 0,0 l/m 0,07 h 0,00 h 87 W/m 12,9 km/h (3 Bft) 97,57 %
27.10.2022 17:00 20,3 C 19,3 C 15,3 C 80 % 1019,4 hPa 0,0 l/m 0,00 h 0,03 h 25 W/m 11,7 km/h (2 Bft) 96,58 %
27.10.2022 18:00 19,8 C 18,7 C 14,6 C 82 % 1019,6 hPa 0,0 l/m 0,00 h 0,00 h 8 W/m 10,9 km/h (2 Bft) 98,27 %
27.10.2022 19:00 19,3 C 18,2 C 14,3 C 84 % 1019,8 hPa 0,0 l/m 0,00 h 0,00 h 0 W/m 12,0 km/h (2 Bft) 95,59 %
27.10.2022 20:00 18,5 C 17,3 C 13,5 C 86 % 1019,7 hPa 0,0 l/m 0,00 h 0,00 h 0 W/m 9,0 km/h (2 Bft) 97,01 %
27.10.2022 21:00 17,7 C 16,7 C 12,9 C 88 % 1019,7 hPa 0,0 l/m 0,00 h 0,00 h 0 W/m 8,1 km/h (2 Bft) 97,72 %
27.10.2022 22:00 17,5 C 16,7 C 12,8 C 90 % 1019,6 hPa 0,0 l/m 0,00 h 0,00 h 0 W/m 9,0 km/h (2 Bft) 97,44 %
27.10.2022 23:00 17,6 C 16,7 C 13,1 C 90 % 1019,5 hPa 0,0 l/m 0,00 h 0,00 h 0 W/m 10,7 km/h (2 Bft) 97,22 %
28.10.2022 00:00 17,6 C 16,7 C 13,0 C 89 % 1019,1 hPa 0,0 l/m 0,00 h 0,00 h 0 W/m 9,8 km/h (2 Bft) 93,83 %
28.10.2022 01:00 17,5 C 16,7 C 12,9 C 89 % 1018,9 hPa 0,0 l/m 0,00 h 0,00 h 0 W/m 12,2 km/h (3 Bft) 96,72 %
28.10.2022 02:00 17,4 C 16,7 C 12,8 C 89 % 1018,7 hPa 0,0 l/m 0,00 h 0,00 h 0 W/m 10,9 km/h (2 Bft) 97,48 %
28.10.2022 03:00 17,3 C 16,4 C 12,8 C 89 % 1018,7 hPa 0,0 l/m 0,00 h 0,00 h 0 W/m 8,3 km/h (2 Bft) 98,08 %
28.10.2022 04:00 17,0 C 16,1 C 12,6 C 89 % 1018,3 hPa 0,0 l/m 0,00 h 0,00 h 0 W/m 13,5 km/h (3 Bft) 96,26 %
28.10.2022 05:00 16,5 C 15,4 C 11,9 C 90 % 1017,9 hPa 0,0 l/m 0,00 h 0,00 h 0 W/m 9,2 km/h (2 Bft) 98,18 %
28.10.2022 06:00 16,2 C 15,4 C 11,9 C 91 % 1017,9 hPa 0,0 l/m 0,00 h 0,00 h 0 W/m 8,4 km/h (2 Bft) 95,27 %
28.10.2022 07:00 16,2 C 15,6 C 11,9 C 90 % 1018,0 hPa 0,0 l/m 0,00 h 0,00 h 0 W/m 9,2 km/h (2 Bft) 97,36 %
28.10.2022 08:00 16,3 C 15,6 C 12,0 C 90 % 1018,1 hPa 0,0 l/m 0,00 h 0,00 h 15 W/m 12,1 km/h (2 Bft) 97,41 %
28.10.2022 09:00 16,5 C 16,2 C 12,5 C 90 % 1018,4 hPa 0,0 l/m 0,00 h 0,00 h 56 W/m 9,2 km/h (2 Bft) 97,86 %
28.10.2022 10:00 17,7 C 17,8 C 13,4 C 87 % 1018,5 hPa 0,0 l/m 0,07 h 0,00 h 80 W/m 11,0 km/h (2 Bft) 96,01 %
28.10.2022 11:00 19,8 C 22,2 C 15,0 C 81 % 1018,3 hPa 0,0 l/m 0,57 h 0,00 h 218 W/m 13,0 km/h (3 Bft) 99,57 %
28.10.2022 12:00 21,0 C 21,0 C 16,3 C 78 % 1018,3 hPa 0,0 l/m 0,00 h 0,00 h 148 W/m 14,3 km/h (3 Bft) 96,98 %
28.10.2022 13:00 22,3 C 22,9 C 17,1 C 76 % 1017,9 hPa 0,0 l/m 0,17 h 0,00 h 190 W/m 10,4 km/h (2 Bft) 96,65 %
28.10.2022 14:00 23,6 C 24,2 C 18,1 C 74 % 1017,4 hPa 0,0 l/m 0,77 h 0,00 h 261 W/m 11,6 km/h (2 Bft) 97,30 %
28.10.2022 15:00 24,2 C 23,8 C 18,3 C 66 % 1017,7 hPa 0,0 l/m 0,57 h 0,00 h 172 W/m 13,5 km/h (3 Bft) 96,79 %
28.10.2022 16:00 23,2 C 22,4 C 17,5 C 68 % 1018,2 hPa 0,0 l/m 0,00 h 0,00 h 94 W/m 8,5 km/h (2 Bft) 96,50 %
28.10.2022 17:00 22,0 C 20,7 C 16,3 C 72 % 1018,8 hPa 0,0 l/m 0,00 h 0,00 h 33 W/m 6,5 km/h (2 Bft) 99,13 %
28.10.2022 18:00 20,7 C 18,8 C 14,3 C 75 % 1019,3 hPa 0,0 l/m 0,00 h 0,00 h 6 W/m 2,1 km/h (1 Bft) 95,63 %
28.10.2022 19:00 19,1 C 16,7 C 12,3 C 81 % 1019,8 hPa 0,0 l/m 0,00 h 0,00 h 0 W/m 0,0 km/h (0 Bft) 97,43 %
28.10.2022 20:00 17,7 C 16,1 C 11,7 C 85 % 1020,2 hPa 0,0 l/m 0,00 h 0,00 h 0 W/m 0,4 km/h (0 Bft) 97,51 %
28.10.2022 21:00 17,0 C 15,6 C 11,5 C 88 % 1020,7 hPa 0,0 l/m 0,00 h 0,00 h 0 W/m 0,0 km/h (0 Bft) 96,37 %
28.10.2022 22:00 16,5 C 15,1 C 11,2 C 90 % 1021,2 hPa 0,0 l/m 0,00 h 0,00 h 0 W/m 0,2 km/h (0 Bft) 98,25 %
28.10.2022 23:00 16,0 C 14,6 C 10,9 C 91 % 1021,7 hPa 0,0 l/m 0,00 h 0,00 h 0 W/m 0,0 km/h (0 Bft) 97,66 %
29.10.2022 00:00 15,6 C 14,2 C 10,6 C 92 % 1021,8 hPa 0,0 l/m 0,00 h 0,00 h 0 W/m 0,0 km/h (0 Bft) 96,13 %
29.10.2022 01:00 15,1 C 13,9 C 10,6 C 93 % 1021,9 hPa 0,0 l/m 0,00 h 0,00 h 0 W/m 0,0 km/h (0 Bft) 99,00 %
29.10.2022 02:00 14,9 C 14,1 C 10,7 C 94 % 1021,9 hPa 0,0 l/m 0,00 h 0,00 h 0 W/m 0,2 km/h (0 Bft) 97,48 %
29.10.2022 03:00 14,8 C 13,6 C 10,3 C 95 % 1021,7 hPa 0,0 l/m 0,00 h 0,00 h 0 W/m 0,0 km/h (0 Bft) 96,23 %
29.10.2022 04:00 14,4 C 13,1 C 10,0 C 95 % 1021,3 hPa 0,0 l/m 0,00 h 0,00 h 0 W/m 0,0 km/h (0 Bft) 97,52 %
29.10.2022 05:00 14,3 C 13,6 C 10,4 C 96 % 1020,9 hPa 0,0 l/m 0,00 h 0,00 h 0 W/m 0,6 km/h (0 Bft) 97,77 %
29.10.2022 06:00 14,3 C 13,7 C 10,5 C 96 % 1020,5 hPa 0,0 l/m 0,00 h 0,00 h 0 W/m 2,9 km/h (1 Bft) 97,06 %
29.10.2022 07:00 14,4 C 13,7 C 10,7 C 96 % 1020,1 hPa 0,0 l/m 0,00 h 0,00 h 0 W/m 1,9 km/h (1 Bft) 95,80 %
29.10.2022 08:00 14,8 C 14,4 C 11,1 C 96 % 1019,9 hPa 0,0 l/m 0,00 h 0,00 h 8 W/m 5,2 km/h (1 Bft) 99,43 %
29.10.2022 09:00 15,3 C 15,0 C 11,8 C 94 % 1020,0 hPa 0,0 l/m 0,00 h 0,00 h 51 W/m 7,7 km/h (2 Bft) 91,41 %
29.10.2022 10:00 16,1 C 16,1 C 12,4 C 92 % 1019,9 hPa 0,0 l/m 0,00 h 0,00 h 88 W/m 13,2 km/h (3 Bft) 97,37 %
29.10.2022 11:00 17,4 C 18,2 C 13,7 C 89 % 1019,8 hPa 0,0 l/m 0,17 h 0,00 h 158 W/m 10,9 km/h (2 Bft) 97,01 %
29.10.2022 12:00 19,0 C 19,2 C 15,0 C 84 % 1019,5 hPa 0,0 l/m 0,00 h 0,00 h 150 W/m 11,3 km/h (2 Bft) 98,49 %
29.10.2022 13:00 20,1 C 20,1 C 15,6 C 80 % 1019,1 hPa 0,0 l/m 0,13 h 0,00 h 123 W/m 14,2 km/h (3 Bft) 96,65 %
29.10.2022 14:00 21,2 C 22,0 C 16,1 C 77 % 1018,6 hPa 0,0 l/m 1,00 h 0,00 h 343 W/m 10,8 km/h (2 Bft) 97,91 %
29.10.2022 15:00 21,7 C 21,6 C 16,4 C 76 % 1018,0 hPa 0,0 l/m 0,73 h 0,00 h 208 W/m 9,3 km/h (2 Bft) 98,06 %
29.10.2022 16:00 21,4 C 20,5 C 16,1 C 78 % 1017,5 hPa 0,0 l/m 0,00 h 0,00 h 81 W/m 5,7 km/h (1 Bft) 96,80 %
29.10.2022 17:00 20,6 C 19,4 C 15,4 C 79 % 1017,4 hPa 0,0 l/m 0,00 h 0,00 h 24 W/m 7,4 km/h (2 Bft) 97,58 %
29.10.2022 18:00 19,5 C 18,4 C 14,5 C 81 % 1017,2 hPa 0,0 l/m 0,00 h 0,00 h 5 W/m 5,7 km/h (1 Bft) 98,97 %
29.10.2022 19:00 18,9 C 17,9 C 14,0 C 82 % 1017,1 hPa 0,0 l/m 0,00 h 0,00 h 0 W/m 5,6 km/h (1 Bft) 94,87 %
29.10.2022 20:00 18,4 C 17,6 C 13,7 C 81 % 1017,1 hPa 0,0 l/m 0,00 h 0,00 h 0 W/m 10,1 km/h (2 Bft) 98,72 %
29.10.2022 21:00 18,0 C 16,9 C 13,2 C 82 % 1017,2 hPa 0,0 l/m 0,00 h 0,00 h 0 W/m 12,9 km/h (3 Bft) 97,01 %
29.10.2022 22:00 17,4 C 16,4 C 12,8 C 83 % 1017,3 hPa 0,0 l/m 0,00 h 0,00 h 0 W/m 9,4 km/h (2 Bft) 96,58 %
29.10.2022 23:00 16,9 C 16,0 C 12,2 C 84 % 1017,7 hPa 0,0 l/m 0,00 h 0,00 h 0 W/m 8,8 km/h (2 Bft) 98,15 %
30.10.2022 00:00 17,0 C 16,1 C 12,7 C 82 % 1017,7 hPa 0,0 l/m 0,00 h 0,00 h 0 W/m 11,7 km/h (2 Bft) 98,22 %
30.10.2022 01:00 16,7 C 15,8 C 12,1 C 82 % 1017,7 hPa 0,0 l/m 0,00 h 0,00 h 0 W/m 8,5 km/h (2 Bft) 95,95 %
30.10.2022 02:00 15,8 C 14,7 C 11,3 C 86 % 1017,8 hPa 0,0 l/m 0,00 h 0,00 h 0 W/m 6,0 km/h (2 Bft) 97,87 %
30.10.2022 03:00 14,8 C 13,5 C 10,2 C 89 % 1017,6 hPa 0,0 l/m 0,00 h 0,00 h 0 W/m 2,8 km/h (1 Bft) 97,01 %
30.10.2022 04:00 13,8 C 12,0 C 8,7 C 90 % 1017,8 hPa 0,0 l/m 0,00 h 0,00 h 0 W/m 0,0 km/h (0 Bft) 98,07 %
30.10.2022 05:00 12,9 C 11,7 C 8,5 C 93 % 1017,9 hPa 0,0 l/m 0,00 h 0,00 h 0 W/m 0,1 km/h (0 Bft) 95,17 %
30.10.2022 06:00 12,7 C 11,9 C 8,8 C 94 % 1017,7 hPa 0,0 l/m 0,00 h 0,00 h 0 W/m 0,0 km/h (0 Bft) 96,73 %
30.10.2022 07:00 12,5 C 11,7 C 8,8 C 95 % 1017,7 hPa 0,0 l/m 0,00 h 0,00 h 11 W/m 0,0 km/h (0 Bft) 94,71 %
30.10.2022 08:00 12,6 C 12,4 C 9,1 C 95 % 1017,8 hPa 0,0 l/m 0,00 h 0,00 h 35 W/m 0,0 km/h (0 Bft) 98,70 %
30.10.2022 09:00 14,2 C 15,0 C 10,9 C 95 % 1017,7 hPa 0,0 l/m 0,20 h 0,00 h 99 W/m 5,2 km/h (1 Bft) 80,10 %
30.10.2022 10:00 17,0 C 20,8 C 12,7 C 85 % 1017,4 hPa 0,0 l/m 0,67 h 0,00 h 227 W/m 10,5 km/h (2 Bft) 97,37 %
30.10.2022 11:00 18,5 C 18,4 C 13,8 C 80 % 1017,3 hPa 0,0 l/m 0,00 h 0,00 h 105 W/m 11,9 km/h (2 Bft) 96,93 %
30.10.2022 12:00 19,6 C 19,6 C 14,9 C 76 % 1017,0 hPa 0,0 l/m 0,10 h 0,00 h 131 W/m 12,3 km/h (3 Bft) 98,74 %
30.10.2022 13:00 20,6 C 21,2 C 15,5 C 74 % 1016,9 hPa 0,0 l/m 1,00 h 0,00 h 270 W/m 10,3 km/h (2 Bft) 96,76 %
30.10.2022 14:00 20,8 C 20,8 C 15,5 C 75 % 1016,7 hPa 0,0 l/m 0,77 h 0,00 h 182 W/m 6,0 km/h (2 Bft) 97,65 %
30.10.2022 15:00 20,9 C 20,2 C 15,2 C 77 % 1016,5 hPa 0,0 l/m 0,57 h 0,00 h 127 W/m 3,3 km/h (1 Bft) 97,96 %
30.10.2022 16:00 20,3 C 18,7 C 13,7 C 79 % 1016,8 hPa 0,0 l/m 0,40 h 0,00 h 43 W/m 1,3 km/h (1 Bft) 97,15 %
30.10.2022 17:00 18,9 C 15,9 C 11,7 C 82 % 1017,4 hPa 0,0 l/m 0,00 h 0,00 h 9 W/m 0,4 km/h (0 Bft) 97,46 %
30.10.2022 18:00 16,9 C 14,8 C 10,8 C 87 % 1018,3 hPa 0,0 l/m 0,00 h 0,00 h 0 W/m 1,0 km/h (0 Bft) 98,72 %
30.10.2022 19:00 16,1 C 15,0 C 10,9 C 87 % 1018,9 hPa 0,0 l/m 0,00 h 0,00 h 0 W/m 0,0 km/h (0 Bft) 96,37 %
30.10.2022 20:00 15,7 C 14,2 C 10,5 C 87 % 1019,5 hPa 0,0 l/m 0,00 h 0,00 h 0 W/m 0,0 km/h (0 Bft) 97,94 %
30.10.2022 21:00 14,9 C 12,9 C 9,4 C 88 % 1019,8 hPa 0,0 l/m 0,00 h 0,00 h 0 W/m 0,0 km/h (0 Bft) 96,51 %
30.10.2022 22:00 14,2 C 13,0 C 9,6 C 90 % 1020,5 hPa 0,0 l/m 0,00 h 0,00 h 0 W/m 0,0 km/h (0 Bft) 98,79 %
30.10.2022 23:00 14,2 C 13,3 C 10,0 C 92 % 1020,9 hPa 0,0 l/m 0,00 h 0,00 h 0 W/m 0,0 km/h (0 Bft) 92,33 %
Min-Datum _ 25.10.22 25.10.22 25.10.22 28.10.22 24.10.22 - - - - 24.10.22 28.10.22
_ Min-Zeit 23:46 23:02 21:02 15:24 05:04 - - - - 05:04 00:02
Minimum _ 11,1 C 10,0 C 7,2 C 63 % 1005,3 hPa - - - - 0,0 km/h (0 Bft) 11,76 %
Max-Datum _ 28.10.22 26.10.22 28.10.22 27.10.22 27.10.22 24.10.22 30.10.22 24.10.22 25.10.22 24.10.22 24.10.22
_ Max-Zeit 15:38 11:20 15:20 09:20 03:42 18:52 15:15 14:22 14:52 12:14 01:36
Maximum _ 24,3 C 26,1 C 18,9 C 97 % 1023,0 hPa 1,0 l/m 0,08 h 0,03 h 526 W/m 48,3 km/h
S-SW (6 Bft)
100,00 %
Durchschnitt _ 16,3 C 15,7 C 11,7 C 87 % 1016,8 hPa #3,6 l/m #16:46 h #2:20 h 110 W/m 8,6 km/h (2 Bft) 96,75 %
© 2022 W. Hausmann